createdAt,value
2022-11-26T00:02:26.842Z,94631.00
2022-11-26T00:07:00.489Z,94626.00
2022-11-26T00:11:02.894Z,94628.00
2022-11-26T00:15:23.355Z,94631.00
2022-11-26T00:20:20.176Z,94634.00
2022-11-26T00:25:20.321Z,94646.00
2022-11-26T00:29:23.517Z,94642.00
2022-11-26T00:33:28.842Z,94643.00
2022-11-26T00:37:41.114Z,94639.00
2022-11-26T00:41:51.053Z,94644.00
2022-11-26T00:45:57.779Z,94647.00
2022-11-26T00:49:59.602Z,94639.00
2022-11-26T00:54:04.103Z,94646.00
2022-11-26T00:58:30.680Z,94653.00
2022-11-26T01:02:34.813Z,94649.00
2022-11-26T01:06:39.932Z,94652.00
2022-11-26T01:10:47.786Z,94657.00
2022-11-26T01:14:49.906Z,94652.00
2022-11-26T01:18:56.666Z,94665.00
2022-11-26T01:22:59.103Z,94666.00
2022-11-26T01:27:52.551Z,94675.00
2022-11-26T01:31:58.682Z,94680.00
2022-11-26T01:36:00.559Z,94690.00
2022-11-26T01:40:05.221Z,94692.00
2022-11-26T01:50:30.500Z,94701.00
2022-11-26T01:54:35.150Z,94710.00
2022-11-26T01:58:42.655Z,94713.00
2022-11-26T02:03:47.210Z,94713.00
2022-11-26T02:08:14.490Z,94721.00
2022-11-26T02:12:16.443Z,94712.00
2022-11-26T02:16:47.379Z,94735.00
2022-11-26T02:21:02.413Z,94733.00
2022-11-26T02:25:04.564Z,94731.00
2022-11-26T02:29:17.582Z,94741.00
2022-11-26T02:33:54.100Z,94739.00
2022-11-26T02:38:01.852Z,94734.00
2022-11-26T02:42:32.937Z,94742.00
2022-11-26T02:47:04.952Z,94755.00
2022-11-26T02:51:18.523Z,94753.00
2022-11-26T02:55:25.365Z,94754.00
2022-11-26T02:59:27.875Z,94765.00
2022-11-26T03:03:58.326Z,94769.00
2022-11-26T03:08:02.732Z,94776.00
2022-11-26T03:12:04.850Z,94773.00
2022-11-26T03:16:20.333Z,94769.00
2022-11-26T03:20:26.509Z,94772.00
2022-11-26T03:24:29.611Z,94776.00
2022-11-26T03:28:35.672Z,94774.00
2022-11-26T03:32:37.548Z,94775.00
2022-11-26T03:36:39.370Z,94784.00
2022-11-26T03:40:41.330Z,94779.00
2022-11-26T03:44:44.374Z,94786.00
2022-11-26T03:48:46.283Z,94769.00
2022-11-26T03:52:48.135Z,94787.00
2022-11-26T03:56:50.216Z,94786.00
2022-11-26T04:00:52.094Z,94790.00
2022-11-26T04:05:06.553Z,94799.00
2022-11-26T04:09:08.658Z,94799.00
2022-11-26T04:13:10.514Z,94814.00
2022-11-26T04:18:02.860Z,94811.00
2022-11-26T04:22:30.085Z,94826.00
2022-11-26T04:26:37.363Z,94830.00
2022-11-26T04:30:39.232Z,94822.00
2022-11-26T04:34:53.475Z,94835.00
2022-11-26T04:38:58.731Z,94838.00
2022-11-26T04:43:02.687Z,94838.00
2022-11-26T04:47:04.773Z,94853.00
2022-11-26T04:51:17.187Z,94846.00
2022-11-26T04:55:19.250Z,94842.00
2022-11-26T04:59:21.170Z,94861.00
2022-11-26T05:03:23.048Z,94845.00
2022-11-26T05:07:25.183Z,94857.00
2022-11-26T05:11:27.105Z,94863.00
2022-11-26T05:15:29.013Z,94855.00
2022-11-26T05:19:30.944Z,94863.00
2022-11-26T05:23:33.204Z,94861.00
2022-11-26T05:27:35.482Z,94863.00
2022-11-26T05:31:37.603Z,94873.00
2022-11-26T05:35:47.680Z,94883.00
2022-11-26T05:40:17.355Z,94883.00
2022-11-26T05:45:22.902Z,94889.00
2022-11-26T05:49:25.104Z,94902.00
2022-11-26T05:53:27.876Z,94905.00
2022-11-26T05:58:11.160Z,94907.00
2022-11-26T06:02:39.769Z,94900.00
2022-11-26T06:06:56.532Z,94910.00
2022-11-26T06:11:00.621Z,94918.00
2022-11-26T06:15:02.810Z,94912.00
2022-11-26T06:19:17.924Z,94931.00
2022-11-26T06:24:20.282Z,94938.00
2022-11-26T06:28:23.336Z,94946.00
2022-11-26T06:32:32.471Z,94951.00
2022-11-26T06:36:34.497Z,94955.00
2022-11-26T06:40:36.326Z,94951.00
2022-11-26T06:44:38.553Z,94965.00
2022-11-26T06:48:40.846Z,94965.00
2022-11-26T06:52:42.918Z,94980.00
2022-11-26T06:56:44.847Z,94972.00
2022-11-26T07:00:46.841Z,94984.00
2022-11-26T07:04:55.002Z,94989.00
2022-11-26T07:09:06.309Z,95006.00
2022-11-26T07:13:52.298Z,95003.00
2022-11-26T07:17:54.212Z,95003.00
2022-11-26T07:22:01.194Z,95020.00
2022-11-26T07:26:09.380Z,95016.00
2022-11-26T07:30:13.255Z,95017.00
2022-11-26T07:35:17.357Z,95025.00
2022-11-26T07:57:16.231Z,95060.00
2022-11-26T08:01:21.937Z,95056.00
2022-11-26T08:05:23.924Z,95059.00
2022-11-26T08:09:44.322Z,95057.00
2022-11-26T08:14:14.299Z,95058.00
2022-11-26T08:18:16.139Z,95070.00
2022-11-26T08:22:18.046Z,95074.00
2022-11-26T08:26:27.489Z,95072.00
2022-11-26T08:30:32.842Z,95067.00
2022-11-26T08:34:42.995Z,95077.00
2022-11-26T08:39:14.557Z,95077.00
2022-11-26T08:43:17.453Z,95069.00
2022-11-26T08:47:19.516Z,95070.00
2022-11-26T08:51:42.176Z,95068.00
2022-11-26T08:55:59.795Z,95068.00
2022-11-26T09:00:05.449Z,95070.00
2022-11-26T09:05:15.343Z,95076.00
2022-11-26T09:09:18.008Z,95080.00
2022-11-26T09:13:26.210Z,95079.00
2022-11-26T09:17:53.366Z,95090.00
2022-11-26T09:22:21.430Z,95090.00
2022-11-26T09:26:49.880Z,95090.00
2022-11-26T09:30:57.835Z,95086.00
2022-11-26T09:34:59.758Z,95096.00
2022-11-26T09:40:04.900Z,95090.00
2022-11-26T09:44:37.842Z,95097.00
2022-11-26T09:48:41.484Z,95094.00
2022-11-26T09:52:55.102Z,95090.00
2022-11-26T09:57:21.066Z,95078.00
2022-11-26T10:01:23.425Z,95081.00
2022-11-26T10:05:40.590Z,95085.00
2022-11-26T10:10:25.376Z,95086.00
2022-11-26T10:15:17.088Z,95079.00
2022-11-26T10:19:41.630Z,95084.00
2022-11-26T10:23:49.472Z,95083.00
2022-11-26T10:28:00.283Z,95092.00
2022-11-26T10:32:27.529Z,95099.00
2022-11-26T10:37:21.943Z,95099.00
2022-11-26T10:41:29.831Z,95098.00
2022-11-26T10:45:48.163Z,95104.00
2022-11-26T10:49:52.599Z,95114.00
2022-11-26T10:53:58.743Z,95103.00
2022-11-26T10:58:23.560Z,95109.00
2022-11-26T11:03:04.084Z,95125.00
2022-11-26T11:07:31.014Z,95122.00
2022-11-26T11:11:33.083Z,95117.00
2022-11-26T11:15:38.891Z,95116.00
2022-11-26T11:19:40.829Z,95113.00
2022-11-26T11:28:51.140Z,95114.00
2022-11-26T11:33:20.824Z,95110.00
2022-11-26T11:37:22.762Z,95107.00
2022-11-26T11:41:27.645Z,95118.00
2022-11-26T11:45:53.262Z,95106.00
2022-11-26T11:50:18.699Z,95109.00
2022-11-26T11:54:25.105Z,95115.00
2022-11-26T11:59:22.986Z,95113.00
2022-11-26T12:04:19.390Z,95117.00
2022-11-26T12:08:43.052Z,95111.00
2022-11-26T12:12:48.490Z,95110.00
2022-11-26T12:17:17.714Z,95106.00
2022-11-26T12:21:35.560Z,95103.00
2022-11-26T12:26:14.811Z,95117.00
2022-11-26T12:30:36.980Z,95118.00
2022-11-26T12:41:00.316Z,95130.00
2022-11-26T12:46:00.022Z,95130.00
2022-11-26T12:50:40.479Z,95131.00
2022-11-26T12:54:53.741Z,95125.00
2022-11-26T13:04:43.275Z,95121.00
2022-11-26T13:09:16.185Z,95126.00
2022-11-26T13:13:58.782Z,95118.00
2022-11-26T13:18:02.715Z,95130.00
2022-11-26T13:22:32.664Z,95122.00
2022-11-26T13:27:21.426Z,95129.00
2022-11-26T13:43:19.281Z,95135.00
2022-11-26T13:47:30.233Z,95128.00
2022-11-26T13:52:35.954Z,95136.00
2022-11-26T13:56:39.203Z,95146.00
2022-11-26T14:00:41.124Z,95145.00
2022-11-26T14:04:53.744Z,95133.00
2022-11-26T14:08:56.338Z,95139.00
2022-11-26T14:13:04.434Z,95135.00
2022-11-26T14:17:21.490Z,95140.00
2022-11-26T14:21:57.802Z,95147.00
2022-11-26T14:26:37.827Z,95142.00
2022-11-26T14:30:47.119Z,95150.00
2022-11-26T14:35:18.516Z,95158.00
2022-11-26T14:39:20.626Z,95145.00
2022-11-26T14:43:28.941Z,95143.00
2022-11-26T14:53:27.414Z,95164.00
2022-11-26T14:58:07.533Z,95170.00
2022-11-26T15:02:24.149Z,95170.00
2022-11-26T15:07:17.884Z,95165.00
2022-11-26T15:11:47.758Z,95167.00
2022-11-26T15:16:42.445Z,95164.00
2022-11-26T15:20:50.698Z,95160.00
2022-11-26T15:24:57.435Z,95159.00
2022-11-26T15:28:59.504Z,95168.00
2022-11-26T15:33:17.436Z,95166.00
2022-11-26T15:37:19.321Z,95168.00
2022-11-26T15:41:23.744Z,95166.00
2022-11-26T15:45:41.216Z,95178.00
2022-11-26T15:50:20.683Z,95180.00
2022-11-26T15:54:43.496Z,95173.00
2022-11-26T15:59:19.863Z,95189.00
2022-11-26T16:03:49.708Z,95192.00
2022-11-26T16:08:23.901Z,95184.00
2022-11-26T16:13:05.308Z,95196.00
2022-11-26T16:17:17.558Z,95190.00
2022-11-26T16:21:38.350Z,95192.00
2022-11-26T16:26:08.801Z,95195.00
2022-11-26T16:30:17.405Z,95206.00
2022-11-26T16:34:19.741Z,95195.00
2022-11-26T16:38:24.584Z,95190.00
2022-11-26T16:42:26.762Z,95195.00
2022-11-26T16:46:53.372Z,95197.00
2022-11-26T16:51:22.446Z,95208.00
2022-11-26T16:55:49.943Z,95214.00
2022-11-26T16:59:55.974Z,95208.00
2022-11-26T17:03:58.110Z,95211.00
2022-11-26T17:08:01.275Z,95213.00
2022-11-26T17:12:03.412Z,95211.00
2022-11-26T17:16:11.804Z,95209.00
2022-11-26T17:20:19.257Z,95221.00
2022-11-26T17:24:27.051Z,95211.00
2022-11-26T17:28:38.506Z,95214.00
2022-11-26T17:32:40.348Z,95230.00
2022-11-26T17:36:42.260Z,95230.00
2022-11-26T17:40:46.490Z,95229.00
2022-11-26T17:44:48.947Z,95227.00
2022-11-26T17:48:54.409Z,95224.00
2022-11-26T17:52:58.900Z,95230.00
2022-11-26T17:57:01.570Z,95228.00
2022-11-26T18:01:03.400Z,95241.00
2022-11-26T18:05:59.986Z,95239.00
2022-11-26T18:10:02.192Z,95238.00
2022-11-26T18:14:04.150Z,95246.00
2022-11-26T18:18:07.551Z,95253.00
2022-11-26T18:22:18.423Z,95249.00
2022-11-26T18:26:20.355Z,95261.00
2022-11-26T18:30:22.372Z,95259.00
2022-11-26T18:34:50.819Z,95261.00
2022-11-26T18:38:53.461Z,95256.00
2022-11-26T18:42:57.738Z,95260.00
2022-11-26T18:47:02.515Z,95269.00
2022-11-26T18:51:33.102Z,95261.00
2022-11-26T18:55:34.960Z,95272.00
2022-11-26T18:59:41.667Z,95267.00
2022-11-26T19:03:44.806Z,95265.00
2022-11-26T19:07:46.689Z,95269.00
2022-11-26T19:11:48.964Z,95277.00
2022-11-26T19:16:43.066Z,95284.00
2022-11-26T19:21:33.141Z,95283.00
2022-11-26T19:25:35.422Z,95278.00
2022-11-26T19:30:45.699Z,95272.00
2022-11-26T19:34:47.817Z,95286.00
2022-11-26T19:38:55.752Z,95276.00
2022-11-26T19:43:28.937Z,95284.00
2022-11-26T19:47:44.322Z,95282.00
2022-11-26T19:51:46.390Z,95286.00
2022-11-26T19:56:13.981Z,95290.00
2022-11-26T20:00:16.099Z,95301.00
2022-11-26T20:04:19.701Z,95302.00
2022-11-26T20:08:21.670Z,95303.00
2022-11-26T20:12:23.517Z,95308.00
2022-11-26T20:16:29.502Z,95300.00
2022-11-26T20:20:39.625Z,95302.00
2022-11-26T20:24:42.706Z,95295.00
2022-11-26T20:28:45.528Z,95298.00
2022-11-26T20:32:49.202Z,95296.00
2022-11-26T20:36:51.189Z,95297.00
2022-11-26T20:41:21.779Z,95296.00
2022-11-26T20:45:28.985Z,95286.00
2022-11-26T20:49:34.528Z,95285.00
2022-11-26T20:53:38.811Z,95287.00
2022-11-26T20:58:50.455Z,95282.00
2022-11-26T21:02:52.596Z,95279.00
2022-11-26T21:06:54.504Z,95289.00
2022-11-26T21:11:46.778Z,95289.00
2022-11-26T21:15:50.379Z,95286.00
2022-11-26T21:19:52.237Z,95280.00
2022-11-26T21:23:55.107Z,95286.00
2022-11-26T21:27:57.200Z,95283.00
2022-11-26T21:32:06.374Z,95274.00
2022-11-26T21:36:59.893Z,95275.00
2022-11-26T21:41:33.735Z,95277.00
2022-11-26T21:45:36.820Z,95262.00
2022-11-26T21:49:39.051Z,95272.00
2022-11-26T21:53:41.401Z,95264.00
2022-11-26T21:58:08.940Z,95263.00
2022-11-26T22:02:12.448Z,95267.00
2022-11-26T22:06:15.657Z,95263.00
2022-11-26T22:10:17.895Z,95264.00
2022-11-26T22:14:23.546Z,95270.00
2022-11-26T22:18:27.490Z,95266.00
2022-11-26T22:22:29.694Z,95279.00
2022-11-26T22:26:31.892Z,95276.00
2022-11-26T22:30:33.969Z,95274.00
2022-11-26T22:34:36.151Z,95269.00
2022-11-26T22:38:39.829Z,95279.00
2022-11-26T22:42:41.735Z,95271.00
2022-11-26T22:47:11.048Z,95274.00
2022-11-26T22:51:14.622Z,95273.00
2022-11-26T22:55:20.271Z,95274.00
2022-11-26T22:59:22.870Z,95279.00
2022-11-26T23:03:28.519Z,95268.00
2022-11-26T23:07:30.905Z,95280.00
2022-11-26T23:11:57.953Z,95269.00
2022-11-26T23:16:00.230Z,95268.00
2022-11-26T23:20:02.401Z,95253.00
2022-11-26T23:24:04.998Z,95262.00
2022-11-26T23:28:07.599Z,95262.00
2022-11-26T23:32:09.510Z,95263.00
2022-11-26T23:36:11.416Z,95261.00
2022-11-26T23:40:14.399Z,95262.00
2022-11-26T23:44:16.338Z,95268.00
2022-11-26T23:48:38.835Z,95260.00
2022-11-26T23:52:40.848Z,95265.00
2022-11-26T23:56:45.176Z,95266.00
